sensor_id;sensor_type;location;lat;lon;timestamp;P1;durP1;ratioP1;P2;durP2;ratioP2
5014;SDS011;2526;51.060;4.228;2023-02-08T00:00:38;25.15;;;13.52;;
5014;SDS011;2526;51.060;4.228;2023-02-08T00:03:04;26.00;;;14.23;;
5014;SDS011;2526;51.060;4.228;2023-02-08T00:05:29;22.50;;;13.57;;
5014;SDS011;2526;51.060;4.228;2023-02-08T00:07:55;18.33;;;10.18;;
5014;SDS011;2526;51.060;4.228;2023-02-08T00:10:20;22.35;;;12.50;;
5014;SDS011;2526;51.060;4.228;2023-02-08T00:12:46;23.83;;;13.70;;
5014;SDS011;2526;51.060;4.228;2023-02-08T00:15:11;22.83;;;15.35;;
5014;SDS011;2526;51.060;4.228;2023-02-08T00:17:37;22.88;;;15.10;;
5014;SDS011;2526;51.060;4.228;2023-02-08T00:20:03;21.30;;;12.00;;
5014;SDS011;2526;51.060;4.228;2023-02-08T00:22:29;18.48;;;11.48;;
5014;SDS011;2526;51.060;4.228;2023-02-08T00:24:55;21.55;;;11.05;;
5014;SDS011;2526;51.060;4.228;2023-02-08T00:27:20;24.73;;;14.73;;
5014;SDS011;2526;51.060;4.228;2023-02-08T00:29:46;21.58;;;14.55;;
5014;SDS011;2526;51.060;4.228;2023-02-08T00:32:11;21.48;;;15.73;;
5014;SDS011;2526;51.060;4.228;2023-02-08T00:34:36;29.50;;;16.73;;
5014;SDS011;2526;51.060;4.228;2023-02-08T00:37:03;31.75;;;18.50;;
5014;SDS011;2526;51.060;4.228;2023-02-08T00:39:28;27.10;;;16.48;;
5014;SDS011;2526;51.060;4.228;2023-02-08T00:41:54;38.70;;;18.00;;
5014;SDS011;2526;51.060;4.228;2023-02-08T00:44:19;24.70;;;16.33;;
5014;SDS011;2526;51.060;4.228;2023-02-08T00:46:45;25.05;;;17.70;;
5014;SDS011;2526;51.060;4.228;2023-02-08T00:49:11;30.38;;;17.52;;
5014;SDS011;2526;51.060;4.228;2023-02-08T00:51:36;30.67;;;16.65;;
5014;SDS011;2526;51.060;4.228;2023-02-08T00:54:02;30.08;;;17.13;;
5014;SDS011;2526;51.060;4.228;2023-02-08T00:56:27;22.95;;;17.25;;
5014;SDS011;2526;51.060;4.228;2023-02-08T00:58:52;19.50;;;14.15;;
5014;SDS011;2526;51.060;4.228;2023-02-08T01:01:18;24.45;;;15.15;;
5014;SDS011;2526;51.060;4.228;2023-02-08T01:03:43;22.95;;;15.77;;
5014;SDS011;2526;51.060;4.228;2023-02-08T01:06:10;23.35;;;15.20;;
5014;SDS011;2526;51.060;4.228;2023-02-08T01:08:37;29.52;;;15.40;;
5014;SDS011;2526;51.060;4.228;2023-02-08T01:11:07;24.80;;;15.85;;
5014;SDS011;2526;51.060;4.228;2023-02-08T01:13:33;23.70;;;17.50;;
5014;SDS011;2526;51.060;4.228;2023-02-08T01:16:12;26.50;;;15.60;;
5014;SDS011;2526;51.060;4.228;2023-02-08T01:18:38;21.77;;;13.38;;
5014;SDS011;2526;51.060;4.228;2023-02-08T01:21:08;17.35;;;12.65;;
5014;SDS011;2526;51.060;4.228;2023-02-08T01:23:33;22.50;;;13.05;;
5014;SDS011;2526;51.060;4.228;2023-02-08T01:25:59;21.73;;;14.75;;
5014;SDS011;2526;51.060;4.228;2023-02-08T01:28:24;24.33;;;13.88;;
5014;SDS011;2526;51.060;4.228;2023-02-08T01:30:50;24.65;;;15.40;;
5014;SDS011;2526;51.060;4.228;2023-02-08T01:33:15;21.15;;;14.38;;
5014;SDS011;2526;51.060;4.228;2023-02-08T01:35:41;20.05;;;12.85;;
5014;SDS011;2526;51.060;4.228;2023-02-08T01:38:06;21.90;;;13.70;;
5014;SDS011;2526;51.060;4.228;2023-02-08T01:40:32;24.25;;;14.55;;
5014;SDS011;2526;51.060;4.228;2023-02-08T01:42:57;25.23;;;15.40;;
5014;SDS011;2526;51.060;4.228;2023-02-08T01:45:24;19.30;;;11.85;;
5014;SDS011;2526;51.060;4.228;2023-02-08T01:53:32;21.63;;;12.65;;
5014;SDS011;2526;51.060;4.228;2023-02-08T01:55:59;19.25;;;12.57;;
5014;SDS011;2526;51.060;4.228;2023-02-08T01:58:26;27.30;;;13.80;;
5014;SDS011;2526;51.060;4.228;2023-02-08T02:00:52;24.33;;;15.27;;
5014;SDS011;2526;51.060;4.228;2023-02-08T02:03:19;20.20;;;12.70;;
5014;SDS011;2526;51.060;4.228;2023-02-08T02:05:46;16.85;;;11.07;;
5014;SDS011;2526;51.060;4.228;2023-02-08T02:08:13;21.80;;;13.05;;
5014;SDS011;2526;51.060;4.228;2023-02-08T02:10:39;24.30;;;12.07;;
5014;SDS011;2526;51.060;4.228;2023-02-08T02:13:06;22.60;;;12.40;;
5014;SDS011;2526;51.060;4.228;2023-02-08T02:15:31;26.50;;;12.38;;
5014;SDS011;2526;51.060;4.228;2023-02-08T02:17:57;22.10;;;13.05;;
5014;SDS011;2526;51.060;4.228;2023-02-08T02:20:25;21.40;;;11.98;;
5014;SDS011;2526;51.060;4.228;2023-02-08T02:23:02;24.15;;;12.55;;
5014;SDS011;2526;51.060;4.228;2023-02-08T02:31:03;15.18;;;9.77;;
5014;SDS011;2526;51.060;4.228;2023-02-08T02:36:16;14.13;;;10.00;;
5014;SDS011;2526;51.060;4.228;2023-02-08T02:47:25;20.15;;;10.95;;
5014;SDS011;2526;51.060;4.228;2023-02-08T02:49:56;16.50;;;11.27;;
5014;SDS011;2526;51.060;4.228;2023-02-08T02:54:53;17.30;;;10.40;;
5014;SDS011;2526;51.060;4.228;2023-02-08T02:57:30;19.98;;;12.32;;
5014;SDS011;2526;51.060;4.228;2023-02-08T02:59:57;17.63;;;10.27;;
5014;SDS011;2526;51.060;4.228;2023-02-08T03:02:22;20.13;;;12.02;;
5014;SDS011;2526;51.060;4.228;2023-02-08T03:04:50;13.45;;;10.02;;
5014;SDS011;2526;51.060;4.228;2023-02-08T03:14:58;25.92;;;15.32;;
5014;SDS011;2526;51.060;4.228;2023-02-08T03:20:00;21.50;;;11.23;;
5014;SDS011;2526;51.060;4.228;2023-02-08T03:22:50;22.75;;;12.73;;
5014;SDS011;2526;51.060;4.228;2023-02-08T03:25:22;19.67;;;11.43;;
5014;SDS011;2526;51.060;4.228;2023-02-08T03:30:15;20.05;;;11.55;;
5014;SDS011;2526;51.060;4.228;2023-02-08T03:32:56;21.73;;;12.20;;
5014;SDS011;2526;51.060;4.228;2023-02-08T03:35:24;15.65;;;11.30;;
5014;SDS011;2526;51.060;4.228;2023-02-08T03:38:04;19.23;;;11.57;;
5014;SDS011;2526;51.060;4.228;2023-02-08T03:40:35;20.48;;;12.82;;
5014;SDS011;2526;51.060;4.228;2023-02-08T03:43:03;18.33;;;12.77;;
5014;SDS011;2526;51.060;4.228;2023-02-08T03:45:32;21.02;;;13.07;;
5014;SDS011;2526;51.060;4.228;2023-02-08T03:48:02;18.27;;;13.25;;
5014;SDS011;2526;51.060;4.228;2023-02-08T03:50:30;19.90;;;12.02;;
5014;SDS011;2526;51.060;4.228;2023-02-08T03:52:57;27.00;;;15.52;;
5014;SDS011;2526;51.060;4.228;2023-02-08T03:55:32;21.70;;;12.35;;
5014;SDS011;2526;51.060;4.228;2023-02-08T04:00:44;25.27;;;12.95;;
5014;SDS011;2526;51.060;4.228;2023-02-08T04:03:13;19.77;;;12.73;;
5014;SDS011;2526;51.060;4.228;2023-02-08T04:05:40;15.95;;;9.82;;
5014;SDS011;2526;51.060;4.228;2023-02-08T04:08:05;22.02;;;12.63;;
5014;SDS011;2526;51.060;4.228;2023-02-08T04:10:31;27.67;;;11.18;;
5014;SDS011;2526;51.060;4.228;2023-02-08T04:12:56;20.92;;;11.60;;
5014;SDS011;2526;51.060;4.228;2023-02-08T04:15:22;21.70;;;12.73;;
5014;SDS011;2526;51.060;4.228;2023-02-08T04:17:48;21.20;;;13.75;;
5014;SDS011;2526;51.060;4.228;2023-02-08T04:20:13;20.58;;;12.40;;
5014;SDS011;2526;51.060;4.228;2023-02-08T04:22:39;17.95;;;13.25;;
5014;SDS011;2526;51.060;4.228;2023-02-08T04:25:05;23.38;;;13.48;;
5014;SDS011;2526;51.060;4.228;2023-02-08T04:27:30;19.17;;;12.13;;
5014;SDS011;2526;51.060;4.228;2023-02-08T04:29:56;17.00;;;11.63;;
5014;SDS011;2526;51.060;4.228;2023-02-08T04:32:21;17.65;;;9.48;;
5014;SDS011;2526;51.060;4.228;2023-02-08T04:34:46;23.45;;;9.05;;
5014;SDS011;2526;51.060;4.228;2023-02-08T04:37:12;16.58;;;12.35;;
5014;SDS011;2526;51.060;4.228;2023-02-08T04:39:37;17.65;;;9.35;;
5014;SDS011;2526;51.060;4.228;2023-02-08T04:42:03;21.90;;;11.63;;
5014;SDS011;2526;51.060;4.228;2023-02-08T04:44:28;18.60;;;11.65;;
5014;SDS011;2526;51.060;4.228;2023-02-08T04:46:57;19.48;;;9.55;;
5014;SDS011;2526;51.060;4.228;2023-02-08T04:49:22;20.30;;;9.68;;
5014;SDS011;2526;51.060;4.228;2023-02-08T04:51:48;18.92;;;10.43;;
5014;SDS011;2526;51.060;4.228;2023-02-08T04:54:13;17.88;;;11.00;;
5014;SDS011;2526;51.060;4.228;2023-02-08T04:56:39;17.08;;;9.63;;
5014;SDS011;2526;51.060;4.228;2023-02-08T04:59:04;17.73;;;11.13;;
5014;SDS011;2526;51.060;4.228;2023-02-08T05:01:30;17.38;;;9.70;;
5014;SDS011;2526;51.060;4.228;2023-02-08T05:03:55;18.52;;;12.00;;
5014;SDS011;2526;51.060;4.228;2023-02-08T05:06:20;17.63;;;10.55;;
5014;SDS011;2526;51.060;4.228;2023-02-08T05:08:46;18.33;;;11.73;;
5014;SDS011;2526;51.060;4.228;2023-02-08T05:11:11;16.80;;;11.35;;
5014;SDS011;2526;51.060;4.228;2023-02-08T05:13:37;14.32;;;9.70;;
5014;SDS011;2526;51.060;4.228;2023-02-08T05:16:02;20.17;;;10.13;;
5014;SDS011;2526;51.060;4.228;2023-02-08T05:18:28;18.20;;;12.65;;
5014;SDS011;2526;51.060;4.228;2023-02-08T05:20:54;21.02;;;10.25;;
5014;SDS011;2526;51.060;4.228;2023-02-08T05:23:20;16.67;;;8.88;;
5014;SDS011;2526;51.060;4.228;2023-02-08T05:25:45;16.73;;;11.43;;
5014;SDS011;2526;51.060;4.228;2023-02-08T05:28:11;19.80;;;10.65;;
5014;SDS011;2526;51.060;4.228;2023-02-08T05:30:37;21.77;;;12.43;;
5014;SDS011;2526;51.060;4.228;2023-02-08T05:33:02;19.70;;;11.57;;
5014;SDS011;2526;51.060;4.228;2023-02-08T05:35:28;17.55;;;11.80;;
5014;SDS011;2526;51.060;4.228;2023-02-08T05:37:53;19.73;;;10.75;;
5014;SDS011;2526;51.060;4.228;2023-02-08T05:40:19;21.45;;;13.80;;
5014;SDS011;2526;51.060;4.228;2023-02-08T05:42:44;19.50;;;12.07;;
5014;SDS011;2526;51.060;4.228;2023-02-08T05:45:12;17.85;;;12.85;;
5014;SDS011;2526;51.060;4.228;2023-02-08T05:47:37;20.83;;;10.68;;
5014;SDS011;2526;51.060;4.228;2023-02-08T05:50:03;22.83;;;12.45;;
5014;SDS011;2526;51.060;4.228;2023-02-08T05:52:29;19.00;;;11.60;;
5014;SDS011;2526;51.060;4.228;2023-02-08T05:54:54;20.42;;;11.20;;
5014;SDS011;2526;51.060;4.228;2023-02-08T05:57:19;18.63;;;10.00;;
5014;SDS011;2526;51.060;4.228;2023-02-08T05:59:45;20.30;;;12.30;;
5014;SDS011;2526;51.060;4.228;2023-02-08T06:02:10;23.52;;;13.02;;
5014;SDS011;2526;51.060;4.228;2023-02-08T06:04:36;15.93;;;10.35;;
5014;SDS011;2526;51.060;4.228;2023-02-08T06:07:01;22.90;;;13.57;;
5014;SDS011;2526;51.060;4.228;2023-02-08T06:09:27;16.63;;;11.32;;
5014;SDS011;2526;51.060;4.228;2023-02-08T06:11:52;20.88;;;11.80;;
5014;SDS011;2526;51.060;4.228;2023-02-08T06:14:17;20.63;;;11.65;;
5014;SDS011;2526;51.060;4.228;2023-02-08T06:16:43;21.50;;;11.00;;
5014;SDS011;2526;51.060;4.228;2023-02-08T06:19:08;17.25;;;11.95;;
5014;SDS011;2526;51.060;4.228;2023-02-08T06:21:34;16.25;;;11.70;;
5014;SDS011;2526;51.060;4.228;2023-02-08T06:23:59;23.67;;;13.07;;
5014;SDS011;2526;51.060;4.228;2023-02-08T06:26:25;16.02;;;11.18;;
5014;SDS011;2526;51.060;4.228;2023-02-08T06:28:50;30.13;;;11.65;;
5014;SDS011;2526;51.060;4.228;2023-02-08T06:31:16;16.35;;;10.93;;
5014;SDS011;2526;51.060;4.228;2023-02-08T06:33:41;21.70;;;14.18;;
5014;SDS011;2526;51.060;4.228;2023-02-08T06:36:07;19.40;;;12.05;;
5014;SDS011;2526;51.060;4.228;2023-02-08T06:38:32;25.67;;;14.38;;
5014;SDS011;2526;51.060;4.228;2023-02-08T06:40:58;22.48;;;12.23;;
5014;SDS011;2526;51.060;4.228;2023-02-08T06:43:24;16.15;;;10.82;;
5014;SDS011;2526;51.060;4.228;2023-02-08T06:45:49;19.02;;;12.27;;
5014;SDS011;2526;51.060;4.228;2023-02-08T06:48:15;24.95;;;11.98;;
5014;SDS011;2526;51.060;4.228;2023-02-08T06:50:40;18.83;;;11.20;;
5014;SDS011;2526;51.060;4.228;2023-02-08T06:53:06;19.48;;;10.68;;
5014;SDS011;2526;51.060;4.228;2023-02-08T06:55:31;19.20;;;13.23;;
5014;SDS011;2526;51.060;4.228;2023-02-08T06:57:57;17.55;;;11.50;;
5014;SDS011;2526;51.060;4.228;2023-02-08T07:00:22;20.15;;;12.98;;
5014;SDS011;2526;51.060;4.228;2023-02-08T07:02:48;17.60;;;10.45;;
5014;SDS011;2526;51.060;4.228;2023-02-08T07:05:13;20.77;;;12.20;;
5014;SDS011;2526;51.060;4.228;2023-02-08T07:07:39;16.00;;;13.30;;
5014;SDS011;2526;51.060;4.228;2023-02-08T07:10:05;19.35;;;13.55;;
5014;SDS011;2526;51.060;4.228;2023-02-08T07:12:35;19.02;;;12.80;;
5014;SDS011;2526;51.060;4.228;2023-02-08T07:15:00;21.73;;;11.82;;
5014;SDS011;2526;51.060;4.228;2023-02-08T07:17:26;21.00;;;13.93;;
5014;SDS011;2526;51.060;4.228;2023-02-08T07:19:51;21.10;;;12.15;;
5014;SDS011;2526;51.060;4.228;2023-02-08T07:22:17;18.90;;;10.82;;
5014;SDS011;2526;51.060;4.228;2023-02-08T07:24:42;22.00;;;14.35;;
5014;SDS011;2526;51.060;4.228;2023-02-08T07:27:08;21.23;;;11.10;;
5014;SDS011;2526;51.060;4.228;2023-02-08T07:29:34;27.15;;;15.73;;
5014;SDS011;2526;51.060;4.228;2023-02-08T07:32:00;22.23;;;12.55;;
5014;SDS011;2526;51.060;4.228;2023-02-08T07:34:27;21.88;;;13.70;;
5014;SDS011;2526;51.060;4.228;2023-02-08T07:36:53;17.45;;;12.13;;
5014;SDS011;2526;51.060;4.228;2023-02-08T07:39:19;24.05;;;11.10;;
5014;SDS011;2526;51.060;4.228;2023-02-08T07:41:44;24.45;;;13.55;;
5014;SDS011;2526;51.060;4.228;2023-02-08T07:44:09;19.15;;;13.52;;
5014;SDS011;2526;51.060;4.228;2023-02-08T07:46:35;25.90;;;14.05;;
5014;SDS011;2526;51.060;4.228;2023-02-08T07:49:00;22.60;;;13.73;;
5014;SDS011;2526;51.060;4.228;2023-02-08T07:51:26;17.25;;;12.60;;
5014;SDS011;2526;51.060;4.228;2023-02-08T07:53:51;19.13;;;11.98;;
5014;SDS011;2526;51.060;4.228;2023-02-08T07:56:17;25.38;;;14.23;;
5014;SDS011;2526;51.060;4.228;2023-02-08T07:58:42;26.15;;;15.48;;
5014;SDS011;2526;51.060;4.228;2023-02-08T08:01:08;26.63;;;14.70;;
5014;SDS011;2526;51.060;4.228;2023-02-08T08:03:33;22.20;;;17.15;;
5014;SDS011;2526;51.060;4.228;2023-02-08T08:05:59;27.73;;;15.35;;
5014;SDS011;2526;51.060;4.228;2023-02-08T08:08:24;23.10;;;16.52;;
5014;SDS011;2526;51.060;4.228;2023-02-08T08:10:50;21.70;;;13.45;;
5014;SDS011;2526;51.060;4.228;2023-02-08T08:13:15;26.40;;;16.40;;
5014;SDS011;2526;51.060;4.228;2023-02-08T08:15:40;23.42;;;16.77;;
5014;SDS011;2526;51.060;4.228;2023-02-08T08:18:06;23.80;;;13.10;;
5014;SDS011;2526;51.060;4.228;2023-02-08T08:20:32;20.40;;;14.55;;
5014;SDS011;2526;51.060;4.228;2023-02-08T08:22:57;22.88;;;15.75;;
5014;SDS011;2526;51.060;4.228;2023-02-08T08:25:23;18.33;;;13.95;;
5014;SDS011;2526;51.060;4.228;2023-02-08T08:27:48;20.83;;;12.55;;
5014;SDS011;2526;51.060;4.228;2023-02-08T08:30:14;21.60;;;13.80;;
5014;SDS011;2526;51.060;4.228;2023-02-08T08:32:40;23.77;;;15.27;;
5014;SDS011;2526;51.060;4.228;2023-02-08T08:35:06;20.00;;;12.88;;
5014;SDS011;2526;51.060;4.228;2023-02-08T08:37:32;21.23;;;13.75;;
5014;SDS011;2526;51.060;4.228;2023-02-08T08:39:58;20.45;;;15.00;;
5014;SDS011;2526;51.060;4.228;2023-02-08T08:42:23;17.85;;;11.75;;
5014;SDS011;2526;51.060;4.228;2023-02-08T08:44:50;17.33;;;12.73;;
5014;SDS011;2526;51.060;4.228;2023-02-08T08:47:16;21.50;;;13.82;;
5014;SDS011;2526;51.060;4.228;2023-02-08T08:49:41;17.45;;;11.45;;
5014;SDS011;2526;51.060;4.228;2023-02-08T08:52:08;16.73;;;12.80;;
5014;SDS011;2526;51.060;4.228;2023-02-08T08:54:34;20.20;;;12.65;;
5014;SDS011;2526;51.060;4.228;2023-02-08T08:56:59;24.75;;;13.77;;
5014;SDS011;2526;51.060;4.228;2023-02-08T08:59:25;23.17;;;13.27;;
5014;SDS011;2526;51.060;4.228;2023-02-08T09:01:50;19.85;;;11.40;;
5014;SDS011;2526;51.060;4.228;2023-02-08T09:04:16;15.05;;;13.05;;
5014;SDS011;2526;51.060;4.228;2023-02-08T09:06:41;21.80;;;14.80;;
5014;SDS011;2526;51.060;4.228;2023-02-08T09:09:07;17.20;;;13.10;;
5014;SDS011;2526;51.060;4.228;2023-02-08T09:11:32;22.70;;;12.52;;
5014;SDS011;2526;51.060;4.228;2023-02-08T09:14:00;21.80;;;13.02;;
5014;SDS011;2526;51.060;4.228;2023-02-08T09:16:25;19.77;;;12.65;;
5014;SDS011;2526;51.060;4.228;2023-02-08T09:18:51;19.95;;;14.38;;
5014;SDS011;2526;51.060;4.228;2023-02-08T09:21:17;19.25;;;12.55;;
5014;SDS011;2526;51.060;4.228;2023-02-08T09:23:43;20.95;;;14.13;;
5014;SDS011;2526;51.060;4.228;2023-02-08T09:26:12;27.85;;;12.95;;
5014;SDS011;2526;51.060;4.228;2023-02-08T09:28:37;23.30;;;13.27;;
5014;SDS011;2526;51.060;4.228;2023-02-08T09:31:10;19.52;;;13.07;;
5014;SDS011;2526;51.060;4.228;2023-02-08T09:33:36;21.17;;;12.25;;
5014;SDS011;2526;51.060;4.228;2023-02-08T09:36:01;21.98;;;12.85;;
5014;SDS011;2526;51.060;4.228;2023-02-08T09:38:27;20.67;;;14.43;;
5014;SDS011;2526;51.060;4.228;2023-02-08T09:43:44;20.50;;;11.93;;
5014;SDS011;2526;51.060;4.228;2023-02-08T09:46:07;24.58;;;14.07;;
5014;SDS011;2526;51.060;4.228;2023-02-08T09:48:36;21.75;;;13.20;;
5014;SDS011;2526;51.060;4.228;2023-02-08T09:51:03;22.20;;;14.40;;
5014;SDS011;2526;51.060;4.228;2023-02-08T09:53:38;21.17;;;11.15;;
5014;SDS011;2526;51.060;4.228;2023-02-08T09:56:05;18.50;;;11.77;;
5014;SDS011;2526;51.060;4.228;2023-02-08T10:00:56;17.83;;;10.98;;
5014;SDS011;2526;51.060;4.228;2023-02-08T10:03:30;16.05;;;9.82;;
5014;SDS011;2526;51.060;4.228;2023-02-08T10:05:56;18.98;;;12.35;;
5014;SDS011;2526;51.060;4.228;2023-02-08T10:08:22;19.35;;;12.45;;
5014;SDS011;2526;51.060;4.228;2023-02-08T10:10:55;17.52;;;12.00;;
5014;SDS011;2526;51.060;4.228;2023-02-08T10:13:31;17.52;;;10.75;;
5014;SDS011;2526;51.060;4.228;2023-02-08T10:24:25;15.77;;;9.30;;
5014;SDS011;2526;51.060;4.228;2023-02-08T10:27:01;17.70;;;10.13;;
5014;SDS011;2526;51.060;4.228;2023-02-08T10:34:39;16.08;;;9.70;;
5014;SDS011;2526;51.060;4.228;2023-02-08T10:37:14;11.20;;;7.38;;
5014;SDS011;2526;51.060;4.228;2023-02-08T10:39:41;26.10;;;10.45;;
5014;SDS011;2526;51.060;4.228;2023-02-08T10:42:14;13.85;;;8.38;;
5014;SDS011;2526;51.060;4.228;2023-02-08T10:49:59;13.63;;;6.15;;
5014;SDS011;2526;51.060;4.228;2023-02-08T10:52:26;9.52;;;6.15;;
5014;SDS011;2526;51.060;4.228;2023-02-08T10:54:54;13.95;;;6.43;;
5014;SDS011;2526;51.060;4.228;2023-02-08T10:57:22;16.90;;;7.50;;
5014;SDS011;2526;51.060;4.228;2023-02-08T11:00:17;12.27;;;7.07;;
5014;SDS011;2526;51.060;4.228;2023-02-08T11:02:41;7.40;;;5.53;;
5014;SDS011;2526;51.060;4.228;2023-02-08T11:05:17;10.65;;;6.05;;
5014;SDS011;2526;51.060;4.228;2023-02-08T11:07:43;14.98;;;6.32;;
5014;SDS011;2526;51.060;4.228;2023-02-08T11:15:25;10.38;;;5.30;;
5014;SDS011;2526;51.060;4.228;2023-02-08T11:17:52;8.43;;;5.57;;
5014;SDS011;2526;51.060;4.228;2023-02-08T11:20:23;10.50;;;6.93;;
5014;SDS011;2526;51.060;4.228;2023-02-08T11:22:50;10.95;;;4.78;;
5014;SDS011;2526;51.060;4.228;2023-02-08T11:25:36;13.07;;;6.10;;
5014;SDS011;2526;51.060;4.228;2023-02-08T11:28:02;10.98;;;6.03;;
5014;SDS011;2526;51.060;4.228;2023-02-08T11:30:28;7.05;;;4.53;;
5014;SDS011;2526;51.060;4.228;2023-02-08T11:33:13;15.60;;;6.38;;
5014;SDS011;2526;51.060;4.228;2023-02-08T11:35:39;7.95;;;5.28;;
5014;SDS011;2526;51.060;4.228;2023-02-08T11:38:05;9.85;;;5.45;;
5014;SDS011;2526;51.060;4.228;2023-02-08T11:40:35;9.13;;;6.22;;
5014;SDS011;2526;51.060;4.228;2023-02-08T11:43:01;6.82;;;4.38;;
5014;SDS011;2526;51.060;4.228;2023-02-08T11:45:28;9.00;;;4.50;;
5014;SDS011;2526;51.060;4.228;2023-02-08T11:47:54;7.65;;;5.28;;
5014;SDS011;2526;51.060;4.228;2023-02-08T11:50:28;7.35;;;4.07;;
5014;SDS011;2526;51.060;4.228;2023-02-08T11:52:58;7.53;;;5.20;;
5014;SDS011;2526;51.060;4.228;2023-02-08T11:55:26;5.70;;;3.38;;
5014;SDS011;2526;51.060;4.228;2023-02-08T11:57:52;5.45;;;3.88;;
5014;SDS011;2526;51.060;4.228;2023-02-08T12:00:22;12.10;;;4.40;;
5014;SDS011;2526;51.060;4.228;2023-02-08T12:02:49;6.85;;;4.28;;
5014;SDS011;2526;51.060;4.228;2023-02-08T12:05:16;6.75;;;3.80;;
5014;SDS011;2526;51.060;4.228;2023-02-08T12:12:56;11.20;;;3.85;;
5014;SDS011;2526;51.060;4.228;2023-02-08T12:18:19;11.95;;;3.78;;
5014;SDS011;2526;51.060;4.228;2023-02-08T12:20:53;6.22;;;3.25;;
5014;SDS011;2526;51.060;4.228;2023-02-08T12:23:30;6.53;;;3.90;;
5014;SDS011;2526;51.060;4.228;2023-02-08T12:29:16;6.90;;;3.20;;
5014;SDS011;2526;51.060;4.228;2023-02-08T12:34:05;2.60;;;1.98;;
5014;SDS011;2526;51.060;4.228;2023-02-08T12:42:15;4.03;;;3.30;;
5014;SDS011;2526;51.060;4.228;2023-02-08T12:47:30;5.57;;;3.50;;
5014;SDS011;2526;51.060;4.228;2023-02-08T12:50:02;5.97;;;3.30;;
5014;SDS011;2526;51.060;4.228;2023-02-08T12:52:38;5.43;;;2.75;;
5014;SDS011;2526;51.060;4.228;2023-02-08T12:57:35;7.50;;;3.20;;
5014;SDS011;2526;51.060;4.228;2023-02-08T13:00:06;3.47;;;2.53;;
5014;SDS011;2526;51.060;4.228;2023-02-08T13:02:33;9.90;;;4.13;;
5014;SDS011;2526;51.060;4.228;2023-02-08T13:05:02;5.28;;;2.97;;
5014;SDS011;2526;51.060;4.228;2023-02-08T13:07:30;6.80;;;2.92;;
5014;SDS011;2526;51.060;4.228;2023-02-08T13:12:29;4.70;;;2.88;;
5014;SDS011;2526;51.060;4.228;2023-02-08T13:14:57;5.80;;;2.90;;
5014;SDS011;2526;51.060;4.228;2023-02-08T13:20:12;8.98;;;3.17;;
5014;SDS011;2526;51.060;4.228;2023-02-08T13:22:41;4.35;;;2.75;;
5014;SDS011;2526;51.060;4.228;2023-02-08T13:25:20;3.75;;;1.95;;
5014;SDS011;2526;51.060;4.228;2023-02-08T13:27:46;6.57;;;2.35;;
5014;SDS011;2526;51.060;4.228;2023-02-08T13:30:16;2.83;;;1.90;;
5014;SDS011;2526;51.060;4.228;2023-02-08T13:32:42;3.92;;;2.05;;
5014;SDS011;2526;51.060;4.228;2023-02-08T13:37:34;5.05;;;1.95;;
5014;SDS011;2526;51.060;4.228;2023-02-08T13:40:01;4.15;;;2.33;;
5014;SDS011;2526;51.060;4.228;2023-02-08T13:42:36;3.80;;;2.25;;
5014;SDS011;2526;51.060;4.228;2023-02-08T13:45:04;2.17;;;1.92;;
5014;SDS011;2526;51.060;4.228;2023-02-08T13:47:31;3.00;;;1.75;;
5014;SDS011;2526;51.060;4.228;2023-02-08T13:49:58;3.30;;;2.05;;
5014;SDS011;2526;51.060;4.228;2023-02-08T13:57:56;3.67;;;1.92;;
5014;SDS011;2526;51.060;4.228;2023-02-08T14:00:35;2.65;;;1.95;;
5014;SDS011;2526;51.060;4.228;2023-02-08T14:03:02;3.80;;;1.98;;
5014;SDS011;2526;51.060;4.228;2023-02-08T14:08:17;5.22;;;2.53;;
5014;SDS011;2526;51.060;4.228;2023-02-08T14:10:45;2.45;;;1.63;;
5014;SDS011;2526;51.060;4.228;2023-02-08T14:15:45;1.98;;;1.48;;
5014;SDS011;2526;51.060;4.228;2023-02-08T14:18:20;5.07;;;2.35;;
5014;SDS011;2526;51.060;4.228;2023-02-08T14:20:54;5.03;;;2.55;;
5014;SDS011;2526;51.060;4.228;2023-02-08T14:23:23;4.22;;;1.95;;
5014;SDS011;2526;51.060;4.228;2023-02-08T14:25:49;3.58;;;2.45;;
5014;SDS011;2526;51.060;4.228;2023-02-08T14:28:29;4.38;;;1.80;;
5014;SDS011;2526;51.060;4.228;2023-02-08T14:30:56;2.20;;;1.30;;
5014;SDS011;2526;51.060;4.228;2023-02-08T14:33:27;4.13;;;1.88;;
5014;SDS011;2526;51.060;4.228;2023-02-08T14:35:55;1.75;;;1.52;;
5014;SDS011;2526;51.060;4.228;2023-02-08T14:40:57;4.82;;;2.15;;
5014;SDS011;2526;51.060;4.228;2023-02-08T14:43:27;6.38;;;2.53;;
5014;SDS011;2526;51.060;4.228;2023-02-08T14:45:54;5.43;;;2.53;;
5014;SDS011;2526;51.060;4.228;2023-02-08T14:48:29;6.50;;;2.17;;
5014;SDS011;2526;51.060;4.228;2023-02-08T14:50:58;4.45;;;2.50;;
5014;SDS011;2526;51.060;4.228;2023-02-08T14:58:39;3.17;;;2.22;;
5014;SDS011;2526;51.060;4.228;2023-02-08T15:01:06;12.20;;;2.03;;
5014;SDS011;2526;51.060;4.228;2023-02-08T15:03:36;3.75;;;2.15;;
5014;SDS011;2526;51.060;4.228;2023-02-08T15:06:21;9.93;;;1.90;;
5014;SDS011;2526;51.060;4.228;2023-02-08T15:08:49;5.22;;;1.67;;
5014;SDS011;2526;51.060;4.228;2023-02-08T15:11:22;3.65;;;2.30;;
5014;SDS011;2526;51.060;4.228;2023-02-08T15:13:49;2.25;;;1.73;;
5014;SDS011;2526;51.060;4.228;2023-02-08T15:16:15;3.40;;;2.42;;
5014;SDS011;2526;51.060;4.228;2023-02-08T15:18:41;7.38;;;3.50;;
5014;SDS011;2526;51.060;4.228;2023-02-08T15:21:14;5.07;;;1.98;;
5014;SDS011;2526;51.060;4.228;2023-02-08T15:23:40;3.70;;;1.90;;
5014;SDS011;2526;51.060;4.228;2023-02-08T15:26:19;4.22;;;2.47;;
5014;SDS011;2526;51.060;4.228;2023-02-08T15:28:45;2.47;;;1.90;;
5014;SDS011;2526;51.060;4.228;2023-02-08T15:31:14;6.00;;;3.45;;
5014;SDS011;2526;51.060;4.228;2023-02-08T15:33:41;3.65;;;2.40;;
5014;SDS011;2526;51.060;4.228;2023-02-08T15:36:13;2.95;;;1.83;;
5014;SDS011;2526;51.060;4.228;2023-02-08T15:38:40;5.63;;;2.58;;
5014;SDS011;2526;51.060;4.228;2023-02-08T15:41:22;7.30;;;2.60;;
5014;SDS011;2526;51.060;4.228;2023-02-08T15:43:48;3.67;;;1.60;;
5014;SDS011;2526;51.060;4.228;2023-02-08T15:46:15;2.35;;;1.75;;
5014;SDS011;2526;51.060;4.228;2023-02-08T15:48:41;2.33;;;1.88;;
5014;SDS011;2526;51.060;4.228;2023-02-08T15:51:10;5.18;;;2.17;;
5014;SDS011;2526;51.060;4.228;2023-02-08T15:53:38;5.25;;;2.08;;
5014;SDS011;2526;51.060;4.228;2023-02-08T15:56:04;2.33;;;1.55;;
5014;SDS011;2526;51.060;4.228;2023-02-08T15:58:32;11.57;;;1.92;;
5014;SDS011;2526;51.060;4.228;2023-02-08T16:01:00;7.53;;;2.83;;
5014;SDS011;2526;51.060;4.228;2023-02-08T16:03:26;3.40;;;1.85;;
5014;SDS011;2526;51.060;4.228;2023-02-08T16:05:56;5.85;;;1.77;;
5014;SDS011;2526;51.060;4.228;2023-02-08T16:08:24;7.00;;;2.55;;
5014;SDS011;2526;51.060;4.228;2023-02-08T16:10:56;6.10;;;2.80;;
5014;SDS011;2526;51.060;4.228;2023-02-08T16:13:25;2.28;;;2.08;;
5014;SDS011;2526;51.060;4.228;2023-02-08T16:15:53;9.00;;;2.45;;
5014;SDS011;2526;51.060;4.228;2023-02-08T16:18:32;4.45;;;2.33;;
5014;SDS011;2526;51.060;4.228;2023-02-08T16:20:58;4.30;;;2.20;;
5014;SDS011;2526;51.060;4.228;2023-02-08T16:23:34;5.03;;;2.70;;
5014;SDS011;2526;51.060;4.228;2023-02-08T16:26:09;4.00;;;2.22;;
5014;SDS011;2526;51.060;4.228;2023-02-08T16:31:02;4.07;;;1.98;;
5014;SDS011;2526;51.060;4.228;2023-02-08T16:33:29;19.20;;;9.40;;
5014;SDS011;2526;51.060;4.228;2023-02-08T16:35:54;9.23;;;4.22;;
5014;SDS011;2526;51.060;4.228;2023-02-08T16:38:26;7.72;;;2.53;;
5014;SDS011;2526;51.060;4.228;2023-02-08T16:40:56;3.20;;;1.92;;
5014;SDS011;2526;51.060;4.228;2023-02-08T16:43:24;2.38;;;1.58;;
5014;SDS011;2526;51.060;4.228;2023-02-08T16:46:32;3.28;;;1.75;;
5014;SDS011;2526;51.060;4.228;2023-02-08T16:48:49;2.88;;;1.98;;
5014;SDS011;2526;51.060;4.228;2023-02-08T16:51:18;3.28;;;2.03;;
5014;SDS011;2526;51.060;4.228;2023-02-08T16:53:46;3.30;;;2.50;;
5014;SDS011;2526;51.060;4.228;2023-02-08T16:56:12;7.93;;;2.10;;
5014;SDS011;2526;51.060;4.228;2023-02-08T16:58:37;2.30;;;1.73;;
5014;SDS011;2526;51.060;4.228;2023-02-08T17:01:03;2.58;;;1.58;;
5014;SDS011;2526;51.060;4.228;2023-02-08T17:03:28;4.10;;;2.10;;